sensor_id;sensor_type;location;lat;lon;timestamp;pressure;altitude;pressure_sealevel;temperature;humidity
19510;BME280;9896;42.486;26.506;2022-08-19T00:00:10;99302.84;;;24.25;69.93
19510;BME280;9896;42.486;26.506;2022-08-19T00:02:39;99293.78;;;24.46;69.75
19510;BME280;9896;42.486;26.506;2022-08-19T00:05:05;99306.22;;;24.44;69.84
19510;BME280;9896;42.486;26.506;2022-08-19T00:07:30;99300.53;;;24.18;70.47
19510;BME280;9896;42.486;26.506;2022-08-19T00:09:56;99307.53;;;23.61;73.35
19510;BME280;9896;42.486;26.506;2022-08-19T00:12:21;99303.38;;;23.36;74.84
19510;BME280;9896;42.486;26.506;2022-08-19T00:14:47;99309.88;;;23.68;73.26
19510;BME280;9896;42.486;26.506;2022-08-19T00:17:12;99310.66;;;23.41;74.09
19510;BME280;9896;42.486;26.506;2022-08-19T00:19:38;99311.56;;;23.36;74.28
19510;BME280;9896;42.486;26.506;2022-08-19T00:22:04;99303.88;;;23.79;71.79
19510;BME280;9896;42.486;26.506;2022-08-19T00:24:30;99309.78;;;23.59;72.33
19510;BME280;9896;42.486;26.506;2022-08-19T00:26:56;99300.25;;;23.56;72.37
19510;BME280;9896;42.486;26.506;2022-08-19T00:29:24;99309.50;;;23.47;72.88
19510;BME280;9896;42.486;26.506;2022-08-19T00:31:50;99302.97;;;23.56;72.13
19510;BME280;9896;42.486;26.506;2022-08-19T00:34:18;99300.31;;;23.65;71.58
19510;BME280;9896;42.486;26.506;2022-08-19T00:36:46;99298.41;;;23.52;72.58
19510;BME280;9896;42.486;26.506;2022-08-19T00:39:12;99296.88;;;23.73;71.86
19510;BME280;9896;42.486;26.506;2022-08-19T00:41:38;99303.78;;;23.57;72.24
19510;BME280;9896;42.486;26.506;2022-08-19T00:44:10;99289.56;;;23.82;71.36
19510;BME280;9896;42.486;26.506;2022-08-19T00:46:39;99293.09;;;23.83;71.02
19510;BME280;9896;42.486;26.506;2022-08-19T00:49:28;99300.91;;;24.25;69.08
19510;BME280;9896;42.486;26.506;2022-08-19T00:52:02;99292.44;;;23.99;70.20
19510;BME280;9896;42.486;26.506;2022-08-19T00:54:29;99297.94;;;23.99;70.42
19510;BME280;9896;42.486;26.506;2022-08-19T00:56:57;99293.09;;;23.96;70.26
19510;BME280;9896;42.486;26.506;2022-08-19T00:59:23;99306.34;;;24.17;69.73
19510;BME280;9896;42.486;26.506;2022-08-19T01:01:49;99305.28;;;24.48;68.38
19510;BME280;9896;42.486;26.506;2022-08-19T01:04:14;99297.88;;;24.49;68.58
19510;BME280;9896;42.486;26.506;2022-08-19T01:06:40;99298.25;;;24.87;67.04
19510;BME280;9896;42.486;26.506;2022-08-19T01:09:08;99293.03;;;24.54;67.65
19510;BME280;9896;42.486;26.506;2022-08-19T01:11:36;99293.91;;;24.64;67.68
19510;BME280;9896;42.486;26.506;2022-08-19T01:14:04;99294.44;;;24.66;67.44
19510;BME280;9896;42.486;26.506;2022-08-19T01:16:32;99294.78;;;24.50;67.64
19510;BME280;9896;42.486;26.506;2022-08-19T01:18:58;99297.72;;;24.54;67.87
19510;BME280;9896;42.486;26.506;2022-08-19T01:21:39;99293.84;;;24.77;66.08
19510;BME280;9896;42.486;26.506;2022-08-19T01:24:06;99298.16;;;24.25;68.38
19510;BME280;9896;42.486;26.506;2022-08-19T01:26:38;99287.06;;;24.08;69.24
19510;BME280;9896;42.486;26.506;2022-08-19T01:29:06;99294.47;;;24.30;68.95
19510;BME280;9896;42.486;26.506;2022-08-19T01:31:33;99302.13;;;24.41;68.41
19510;BME280;9896;42.486;26.506;2022-08-19T01:34:00;99300.53;;;24.40;68.39
19510;BME280;9896;42.486;26.506;2022-08-19T01:36:39;99300.22;;;24.20;69.05
19510;BME280;9896;42.486;26.506;2022-08-19T01:39:09;99297.22;;;23.94;70.25
19510;BME280;9896;42.486;26.506;2022-08-19T01:41:36;99292.00;;;23.84;70.77
19510;BME280;9896;42.486;26.506;2022-08-19T01:44:03;99292.66;;;23.89;70.80
19510;BME280;9896;42.486;26.506;2022-08-19T01:46:30;99289.56;;;23.82;70.75
19510;BME280;9896;42.486;26.506;2022-08-19T01:48:56;99295.84;;;24.19;69.63
19510;BME280;9896;42.486;26.506;2022-08-19T01:51:22;99296.75;;;23.92;69.79
19510;BME280;9896;42.486;26.506;2022-08-19T01:53:49;99298.31;;;23.71;71.70
19510;BME280;9896;42.486;26.506;2022-08-19T01:56:15;99287.31;;;23.84;70.84
19510;BME280;9896;42.486;26.506;2022-08-19T01:58:45;99289.09;;;24.16;70.35
19510;BME280;9896;42.486;26.506;2022-08-19T02:01:12;99293.88;;;23.97;72.34
19510;BME280;9896;42.486;26.506;2022-08-19T02:03:39;99291.59;;;24.13;72.45
19510;BME280;9896;42.486;26.506;2022-08-19T02:06:05;99260.00;;;24.29;72.09
19510;BME280;9896;42.486;26.506;2022-08-19T02:08:33;99289.75;;;24.22;73.02
19510;BME280;9896;42.486;26.506;2022-08-19T02:10:59;99297.28;;;24.16;74.25
19510;BME280;9896;42.486;26.506;2022-08-19T02:13:26;99291.94;;;23.97;74.67
19510;BME280;9896;42.486;26.506;2022-08-19T02:15:51;99296.19;;;23.68;77.01
19510;BME280;9896;42.486;26.506;2022-08-19T02:18:17;99283.63;;;23.53;78.13
19510;BME280;9896;42.486;26.506;2022-08-19T02:20:43;99279.97;;;23.71;77.41
19510;BME280;9896;42.486;26.506;2022-08-19T02:23:11;99282.31;;;23.50;78.54
19510;BME280;9896;42.486;26.506;2022-08-19T02:25:38;99285.63;;;23.20;80.16
19510;BME280;9896;42.486;26.506;2022-08-19T02:28:05;99280.78;;;23.58;74.13
19510;BME280;9896;42.486;26.506;2022-08-19T02:30:31;99285.34;;;23.98;69.69
19510;BME280;9896;42.486;26.506;2022-08-19T02:32:56;99285.97;;;23.59;76.28
19510;BME280;9896;42.486;26.506;2022-08-19T02:35:23;99288.09;;;23.35;78.81
19510;BME280;9896;42.486;26.506;2022-08-19T02:37:49;99281.38;;;23.28;78.49
19510;BME280;9896;42.486;26.506;2022-08-19T02:40:33;99295.88;;;23.01;81.12
19510;BME280;9896;42.486;26.506;2022-08-19T02:43:03;99300.25;;;23.02;81.29
19510;BME280;9896;42.486;26.506;2022-08-19T02:45:36;99304.97;;;22.96;81.24
19510;BME280;9896;42.486;26.506;2022-08-19T02:48:02;99309.53;;;23.01;80.44
19510;BME280;9896;42.486;26.506;2022-08-19T02:50:28;99318.31;;;22.84;81.10
19510;BME280;9896;42.486;26.506;2022-08-19T02:52:54;99309.84;;;22.67;81.51
19510;BME280;9896;42.486;26.506;2022-08-19T02:55:19;99315.31;;;22.67;81.20
19510;BME280;9896;42.486;26.506;2022-08-19T02:57:46;99321.25;;;22.88;80.18
19510;BME280;9896;42.486;26.506;2022-08-19T03:00:12;99318.84;;;22.86;79.56
19510;BME280;9896;42.486;26.506;2022-08-19T03:02:38;99324.59;;;22.85;78.69
19510;BME280;9896;42.486;26.506;2022-08-19T03:05:08;99335.50;;;22.71;78.64
19510;BME280;9896;42.486;26.506;2022-08-19T03:07:35;99332.31;;;22.64;78.75
19510;BME280;9896;42.486;26.506;2022-08-19T03:10:01;99340.84;;;22.44;79.67
19510;BME280;9896;42.486;26.506;2022-08-19T03:12:26;99335.84;;;22.83;78.27
19510;BME280;9896;42.486;26.506;2022-08-19T03:14:52;99338.09;;;23.08;76.90
19510;BME280;9896;42.486;26.506;2022-08-19T03:17:18;99344.63;;;23.26;76.32
19510;BME280;9896;42.486;26.506;2022-08-19T03:19:43;99342.50;;;23.37;75.63
19510;BME280;9896;42.486;26.506;2022-08-19T03:22:09;99348.38;;;23.44;75.20
19510;BME280;9896;42.486;26.506;2022-08-19T03:24:35;99343.22;;;23.42;74.78
19510;BME280;9896;42.486;26.506;2022-08-19T03:27:00;99341.50;;;23.46;74.94
19510;BME280;9896;42.486;26.506;2022-08-19T03:29:27;99345.94;;;23.56;74.22
19510;BME280;9896;42.486;26.506;2022-08-19T03:31:53;99347.28;;;23.31;74.71
19510;BME280;9896;42.486;26.506;2022-08-19T03:34:25;99339.53;;;23.06;75.91
19510;BME280;9896;42.486;26.506;2022-08-19T03:36:52;99344.50;;;23.17;75.54
19510;BME280;9896;42.486;26.506;2022-08-19T03:39:19;99346.84;;;23.38;73.86
19510;BME280;9896;42.486;26.506;2022-08-19T03:41:46;99342.44;;;22.96;75.59
19510;BME280;9896;42.486;26.506;2022-08-19T03:44:13;99347.75;;;23.06;74.85
19510;BME280;9896;42.486;26.506;2022-08-19T03:46:39;99359.28;;;22.70;76.64
19510;BME280;9896;42.486;26.506;2022-08-19T03:49:05;99351.91;;;22.71;76.61
19510;BME280;9896;42.486;26.506;2022-08-19T03:51:36;99363.69;;;22.85;75.96
19510;BME280;9896;42.486;26.506;2022-08-19T03:54:08;99356.25;;;22.72;76.12
19510;BME280;9896;42.486;26.506;2022-08-19T03:56:35;99356.59;;;22.84;75.33
19510;BME280;9896;42.486;26.506;2022-08-19T03:59:03;99362.34;;;23.29;73.64
19510;BME280;9896;42.486;26.506;2022-08-19T04:01:29;99359.22;;;23.35;72.92
19510;BME280;9896;42.486;26.506;2022-08-19T04:03:59;99366.50;;;22.80;74.07
19510;BME280;9896;42.486;26.506;2022-08-19T04:06:28;99362.91;;;22.66;75.23
19510;BME280;9896;42.486;26.506;2022-08-19T04:08:56;99365.13;;;22.96;74.35
19510;BME280;9896;42.486;26.506;2022-08-19T04:11:29;99375.47;;;22.99;73.89
19510;BME280;9896;42.486;26.506;2022-08-19T04:13:55;99381.25;;;22.98;73.92
19510;BME280;9896;42.486;26.506;2022-08-19T04:16:23;99373.22;;;22.88;73.75
19510;BME280;9896;42.486;26.506;2022-08-19T04:18:50;99380.34;;;23.02;73.48
19510;BME280;9896;42.486;26.506;2022-08-19T04:21:23;99372.72;;;23.45;71.05
19510;BME280;9896;42.486;26.506;2022-08-19T04:23:49;99380.53;;;23.52;70.86
19510;BME280;9896;42.486;26.506;2022-08-19T04:26:17;99382.28;;;23.02;72.65
19510;BME280;9896;42.486;26.506;2022-08-19T04:28:44;99378.78;;;23.42;71.04
19510;BME280;9896;42.486;26.506;2022-08-19T04:31:15;99376.88;;;23.70;69.83
19510;BME280;9896;42.486;26.506;2022-08-19T04:33:41;99383.06;;;23.62;70.68
19510;BME280;9896;42.486;26.506;2022-08-19T04:36:07;99375.34;;;23.64;70.10
19510;BME280;9896;42.486;26.506;2022-08-19T04:38:35;99380.81;;;23.91;68.80
19510;BME280;9896;42.486;26.506;2022-08-19T04:41:02;99372.50;;;23.83;68.83
19510;BME280;9896;42.486;26.506;2022-08-19T04:43:46;99391.44;;;23.93;69.95
19510;BME280;9896;42.486;26.506;2022-08-19T04:46:15;99388.44;;;23.67;71.71
19510;BME280;9896;42.486;26.506;2022-08-19T04:48:42;99385.38;;;23.96;71.01
19510;BME280;9896;42.486;26.506;2022-08-19T04:51:12;99385.47;;;23.77;71.58
19510;BME280;9896;42.486;26.506;2022-08-19T04:53:40;99380.91;;;24.00;69.56
19510;BME280;9896;42.486;26.506;2022-08-19T04:56:14;99369.88;;;23.91;70.89
19510;BME280;9896;42.486;26.506;2022-08-19T04:58:41;99382.56;;;23.87;71.63
19510;BME280;9896;42.486;26.506;2022-08-19T05:01:09;99392.34;;;24.02;72.25
19510;BME280;9896;42.486;26.506;2022-08-19T05:03:36;99395.13;;;23.75;73.65
19510;BME280;9896;42.486;26.506;2022-08-19T05:06:08;99395.72;;;23.85;73.01
19510;BME280;9896;42.486;26.506;2022-08-19T05:08:37;99386.97;;;23.97;72.50
19510;BME280;9896;42.486;26.506;2022-08-19T05:11:17;99389.84;;;23.92;71.94
19510;BME280;9896;42.486;26.506;2022-08-19T05:13:44;99386.78;;;24.07;71.20
19510;BME280;9896;42.486;26.506;2022-08-19T05:16:11;99384.84;;;24.07;71.76
19510;BME280;9896;42.486;26.506;2022-08-19T05:18:37;99378.19;;;23.86;71.67
19510;BME280;9896;42.486;26.506;2022-08-19T05:21:22;99398.50;;;24.35;70.26
19510;BME280;9896;42.486;26.506;2022-08-19T05:24:06;99395.09;;;24.51;69.18
19510;BME280;9896;42.486;26.506;2022-08-19T05:26:35;99396.06;;;24.33;69.34
19510;BME280;9896;42.486;26.506;2022-08-19T05:29:02;99394.53;;;24.63;68.87
19510;BME280;9896;42.486;26.506;2022-08-19T05:31:29;99399.53;;;24.83;68.54
19510;BME280;9896;42.486;26.506;2022-08-19T05:33:55;99391.78;;;24.63;67.16
19510;BME280;9896;42.486;26.506;2022-08-19T05:36:24;99393.13;;;24.66;69.12
19510;BME280;9896;42.486;26.506;2022-08-19T05:38:49;99399.69;;;25.01;67.70
19510;BME280;9896;42.486;26.506;2022-08-19T05:41:15;99391.72;;;25.21;66.48
19510;BME280;9896;42.486;26.506;2022-08-19T05:43:42;99388.22;;;25.29;66.23
19510;BME280;9896;42.486;26.506;2022-08-19T05:46:07;99394.56;;;25.38;64.67
19510;BME280;9896;42.486;26.506;2022-08-19T05:48:34;99389.84;;;25.70;62.95
19510;BME280;9896;42.486;26.506;2022-08-19T05:51:04;99389.81;;;25.61;62.59
19510;BME280;9896;42.486;26.506;2022-08-19T05:53:32;99384.09;;;25.97;61.47
19510;BME280;9896;42.486;26.506;2022-08-19T05:56:06;99386.38;;;25.95;61.37
19510;BME280;9896;42.486;26.506;2022-08-19T05:58:32;99374.50;;;25.69;61.94
19510;BME280;9896;42.486;26.506;2022-08-19T06:00:58;99389.25;;;25.81;61.64
19510;BME280;9896;42.486;26.506;2022-08-19T06:03:32;99392.19;;;25.94;60.47
19510;BME280;9896;42.486;26.506;2022-08-19T06:05:59;99387.25;;;26.30;60.36
19510;BME280;9896;42.486;26.506;2022-08-19T06:08:26;99390.50;;;26.23;60.53
19510;BME280;9896;42.486;26.506;2022-08-19T06:10:53;99381.25;;;26.71;58.62
19510;BME280;9896;42.486;26.506;2022-08-19T06:13:18;99390.34;;;26.63;58.86
19510;BME280;9896;42.486;26.506;2022-08-19T06:15:45;99387.06;;;26.78;58.42
19510;BME280;9896;42.486;26.506;2022-08-19T06:18:13;99378.84;;;26.61;59.12
19510;BME280;9896;42.486;26.506;2022-08-19T06:20:39;99382.06;;;26.80;58.16
19510;BME280;9896;42.486;26.506;2022-08-19T06:23:05;99377.22;;;26.77;58.62
19510;BME280;9896;42.486;26.506;2022-08-19T06:25:30;99379.16;;;26.94;58.43
19510;BME280;9896;42.486;26.506;2022-08-19T06:27:56;99386.34;;;27.33;57.26
19510;BME280;9896;42.486;26.506;2022-08-19T06:30:22;99370.25;;;27.52;55.73
19510;BME280;9896;42.486;26.506;2022-08-19T06:32:48;99380.28;;;27.86;55.29
19510;BME280;9896;42.486;26.506;2022-08-19T06:35:14;99371.81;;;27.61;54.50
19510;BME280;9896;42.486;26.506;2022-08-19T06:37:40;99370.16;;;27.98;53.94
19510;BME280;9896;42.486;26.506;2022-08-19T06:40:06;99373.84;;;28.32;51.81
19510;BME280;9896;42.486;26.506;2022-08-19T06:42:34;99372.69;;;28.12;52.42
19510;BME280;9896;42.486;26.506;2022-08-19T06:45:00;99375.63;;;28.07;52.81
19510;BME280;9896;42.486;26.506;2022-08-19T06:47:29;99376.81;;;27.97;53.29
19510;BME280;9896;42.486;26.506;2022-08-19T06:49:55;99369.97;;;28.03;51.46
19510;BME280;9896;42.486;26.506;2022-08-19T06:52:25;99358.44;;;28.31;51.25
19510;BME280;9896;42.486;26.506;2022-08-19T06:54:50;99363.88;;;28.39;50.54
19510;BME280;9896;42.486;26.506;2022-08-19T06:57:16;99358.88;;;28.53;49.79
19510;BME280;9896;42.486;26.506;2022-08-19T06:59:42;99374.09;;;28.39;49.95
19510;BME280;9896;42.486;26.506;2022-08-19T07:02:07;99359.59;;;28.83;49.17
19510;BME280;9896;42.486;26.506;2022-08-19T07:04:34;99370.50;;;29.13;48.42
19510;BME280;9896;42.486;26.506;2022-08-19T07:07:10;99369.56;;;29.53;47.17
19510;BME280;9896;42.486;26.506;2022-08-19T07:09:40;99380.09;;;28.94;48.82
19510;BME280;9896;42.486;26.506;2022-08-19T07:12:08;99376.03;;;28.59;49.23
19510;BME280;9896;42.486;26.506;2022-08-19T07:14:35;99370.34;;;29.30;46.67
19510;BME280;9896;42.486;26.506;2022-08-19T07:17:06;99363.66;;;29.55;46.62
19510;BME280;9896;42.486;26.506;2022-08-19T07:19:33;99375.56;;;29.23;47.34
19510;BME280;9896;42.486;26.506;2022-08-19T07:22:04;99365.50;;;28.94;48.13
19510;BME280;9896;42.486;26.506;2022-08-19T07:24:31;99371.03;;;29.51;47.08
19510;BME280;9896;42.486;26.506;2022-08-19T07:26:59;99371.63;;;29.69;45.78
19510;BME280;9896;42.486;26.506;2022-08-19T07:29:29;99368.63;;;29.86;45.63
19510;BME280;9896;42.486;26.506;2022-08-19T07:31:56;99367.00;;;30.09;44.71
19510;BME280;9896;42.486;26.506;2022-08-19T07:34:24;99377.34;;;30.12;45.08
19510;BME280;9896;42.486;26.506;2022-08-19T07:36:51;99369.84;;;30.25;44.73
19510;BME280;9896;42.486;26.506;2022-08-19T07:39:19;99372.44;;;29.93;45.55
19510;BME280;9896;42.486;26.506;2022-08-19T07:41:46;99374.38;;;29.57;46.43
19510;BME280;9896;42.486;26.506;2022-08-19T07:44:12;99368.72;;;30.14;45.75
19510;BME280;9896;42.486;26.506;2022-08-19T07:46:44;99374.66;;;30.40;44.09
19510;BME280;9896;42.486;26.506;2022-08-19T07:49:11;99365.50;;;30.12;44.54
19510;BME280;9896;42.486;26.506;2022-08-19T07:51:44;99371.88;;;30.52;43.31
19510;BME280;9896;42.486;26.506;2022-08-19T07:54:10;99362.16;;;30.58;43.89
19510;BME280;9896;42.486;26.506;2022-08-19T07:56:36;99363.69;;;30.56;42.74
19510;BME280;9896;42.486;26.506;2022-08-19T07:59:02;99357.25;;;30.39;43.01
19510;BME280;9896;42.486;26.506;2022-08-19T08:01:28;99350.63;;;30.16;43.16
19510;BME280;9896;42.486;26.506;2022-08-19T08:03:56;99358.88;;;30.28;42.78
19510;BME280;9896;42.486;26.506;2022-08-19T08:06:42;99347.22;;;30.47;41.96
19510;BME280;9896;42.486;26.506;2022-08-19T08:09:33;99350.97;;;30.82;41.39
19510;BME280;9896;42.486;26.506;2022-08-19T08:12:06;99345.25;;;30.48;42.27
19510;BME280;9896;42.486;26.506;2022-08-19T08:14:40;99343.19;;;30.72;42.05
19510;BME280;9896;42.486;26.506;2022-08-19T08:17:08;99353.41;;;30.56;41.77
19510;BME280;9896;42.486;26.506;2022-08-19T08:19:34;99347.41;;;30.82;41.34
19510;BME280;9896;42.486;26.506;2022-08-19T08:22:01;99343.22;;;30.44;42.37
19510;BME280;9896;42.486;26.506;2022-08-19T08:24:29;99343.38;;;31.07;41.19
19510;BME280;9896;42.486;26.506;2022-08-19T08:27:00;99349.91;;;30.87;40.70
19510;BME280;9896;42.486;26.506;2022-08-19T08:29:29;99351.31;;;31.09;41.00
19510;BME280;9896;42.486;26.506;2022-08-19T08:31:56;99337.94;;;31.42;40.23
19510;BME280;9896;42.486;26.506;2022-08-19T08:34:22;99340.47;;;30.88;41.75
19510;BME280;9896;42.486;26.506;2022-08-19T08:36:48;99343.00;;;31.71;39.03
19510;BME280;9896;42.486;26.506;2022-08-19T08:39:18;99347.56;;;30.73;41.18
19510;BME280;9896;42.486;26.506;2022-08-19T08:44:17;99336.44;;;31.95;39.29
19510;BME280;9896;42.486;26.506;2022-08-19T08:46:58;99337.94;;;31.73;39.53
19510;BME280;9896;42.486;26.506;2022-08-19T08:49:51;99337.56;;;31.28;39.79
19510;BME280;9896;42.486;26.506;2022-08-19T08:52:23;99329.81;;;31.33;39.34
19510;BME280;9896;42.486;26.506;2022-08-19T08:54:53;99329.22;;;31.91;38.48
19510;BME280;9896;42.486;26.506;2022-08-19T08:57:44;99339.13;;;31.92;39.13
19510;BME280;9896;42.486;26.506;2022-08-19T09:02:48;99330.22;;;32.56;37.39
19510;BME280;9896;42.486;26.506;2022-08-19T09:05:14;99330.16;;;31.98;38.22
19510;BME280;9896;42.486;26.506;2022-08-19T09:10:37;99329.00;;;31.64;39.72
19510;BME280;9896;42.486;26.506;2022-08-19T09:16:07;99327.66;;;32.09;38.37
19510;BME280;9896;42.486;26.506;2022-08-19T09:18:44;99335.50;;;32.61;37.13
19510;BME280;9896;42.486;26.506;2022-08-19T09:21:12;99331.47;;;32.04;38.48
19510;BME280;9896;42.486;26.506;2022-08-19T09:23:38;99332.56;;;32.54;37.69
19510;BME280;9896;42.486;26.506;2022-08-19T09:26:12;99318.28;;;33.13;35.98
19510;BME280;9896;42.486;26.506;2022-08-19T09:28:42;99323.19;;;33.46;35.29
19510;BME280;9896;42.486;26.506;2022-08-19T09:31:15;99320.22;;;32.51;37.00
19510;BME280;9896;42.486;26.506;2022-08-19T09:33:41;99316.00;;;32.19;37.72
19510;BME280;9896;42.486;26.506;2022-08-19T09:36:12;99320.16;;;32.48;36.43
19510;BME280;9896;42.486;26.506;2022-08-19T09:38:39;99322.78;;;32.21;37.60
19510;BME280;9896;42.486;26.506;2022-08-19T09:41:08;99312.13;;;32.43;37.22
19510;BME280;9896;42.486;26.506;2022-08-19T09:43:34;99318.63;;;32.50;36.97
19510;BME280;9896;42.486;26.506;2022-08-19T09:46:03;99313.22;;;32.77;36.49
19510;BME280;9896;42.486;26.506;2022-08-19T09:48:32;99313.50;;;31.63;38.66
19510;BME280;9896;42.486;26.506;2022-08-19T09:51:05;99321.56;;;32.77;36.53
19510;BME280;9896;42.486;26.506;2022-08-19T09:53:34;99303.28;;;32.37;37.69
19510;BME280;9896;42.486;26.506;2022-08-19T09:56:00;99305.19;;;32.94;36.08
19510;BME280;9896;42.486;26.506;2022-08-19T09:58:26;99310.00;;;32.36;37.25
19510;BME280;9896;42.486;26.506;2022-08-19T10:00:57;99307.97;;;32.71;37.18
19510;BME280;9896;42.486;26.506;2022-08-19T10:03:24;99308.16;;;33.50;35.77
19510;BME280;9896;42.486;26.506;2022-08-19T10:05:49;99315.41;;;33.58;34.99
19510;BME280;9896;42.486;26.506;2022-08-19T10:08:28;99309.19;;;34.18;33.70
19510;BME280;9896;42.486;26.506;2022-08-19T10:10:55;99303.22;;;34.52;32.61
19510;BME280;9896;42.486;26.506;2022-08-19T10:13:23;99308.34;;;33.87;33.82
19510;BME280;9896;42.486;26.506;2022-08-19T10:15:51;99315.81;;;32.89;35.41
19510;BME280;9896;42.486;26.506;2022-08-19T10:18:19;99305.31;;;33.47;34.68
19510;BME280;9896;42.486;26.506;2022-08-19T10:20:46;99304.78;;;33.87;33.77
19510;BME280;9896;42.486;26.506;2022-08-19T10:23:13;99310.81;;;33.43;34.70
19510;BME280;9896;42.486;26.506;2022-08-19T10:25:38;99298.50;;;33.67;34.17
19510;BME280;9896;42.486;26.506;2022-08-19T10:28:04;99309.56;;;33.90;33.49
19510;BME280;9896;42.486;26.506;2022-08-19T10:30:31;99317.38;;;34.07;33.75
19510;BME280;9896;42.486;26.506;2022-08-19T10:32:57;99301.84;;;34.06;33.43
19510;BME280;9896;42.486;26.506;2022-08-19T10:35:22;99306.66;;;34.39;32.92
19510;BME280;9896;42.486;26.506;2022-08-19T10:37:48;99300.84;;;34.51;32.48
19510;BME280;9896;42.486;26.506;2022-08-19T10:40:14;99300.59;;;34.03;33.90
19510;BME280;9896;42.486;26.506;2022-08-19T10:42:40;99290.75;;;35.13;31.96
19510;BME280;9896;42.486;26.506;2022-08-19T10:45:05;99293.66;;;34.50;32.76
19510;BME280;9896;42.486;26.506;2022-08-19T10:47:33;99288.22;;;33.97;34.21
19510;BME280;9896;42.486;26.506;2022-08-19T10:49:58;99296.63;;;34.31;33.54
19510;BME280;9896;42.486;26.506;2022-08-19T10:52:45;99272.34;;;35.46;31.22
19510;BME280;9896;42.486;26.506;2022-08-19T10:55:11;99295.03;;;34.30;32.23
19510;BME280;9896;42.486;26.506;2022-08-19T10:57:56;99284.72;;;34.04;33.08
19510;BME280;9896;42.486;26.506;2022-08-19T11:00:23;99284.06;;;33.84;32.48
19510;BME280;9896;42.486;26.506;2022-08-19T11:02:48;99282.94;;;34.15;32.64
19510;BME280;9896;42.486;26.506;2022-08-19T11:05:14;99285.19;;;34.73;31.50
19510;BME280;9896;42.486;26.506;2022-08-19T11:07:41;99289.78;;;33.95;32.85
19510;BME280;9896;42.486;26.506;2022-08-19T11:10:08;99282.91;;;33.62;33.59
19510;BME280;9896;42.486;26.506;2022-08-19T11:12:37;99274.56;;;34.15;33.46
19510;BME280;9896;42.486;26.506;2022-08-19T11:15:05;99279.09;;;35.48;31.44
19510;BME280;9896;42.486;26.506;2022-08-19T11:17:33;99273.19;;;34.69;32.56
19510;BME280;9896;42.486;26.506;2022-08-19T11:19:58;99269.94;;;35.48;31.85
19510;BME280;9896;42.486;26.506;2022-08-19T11:22:27;99280.41;;;34.73;32.13
19510;BME280;9896;42.486;26.506;2022-08-19T11:24:52;99277.88;;;34.61;32.36
19510;BME280;9896;42.486;26.506;2022-08-19T11:27:18;99265.47;;;35.36;31.10
19510;BME280;9896;42.486;26.506;2022-08-19T11:29:43;99268.34;;;34.29;32.57
19510;BME280;9896;42.486;26.506;2022-08-19T11:32:10;99266.97;;;33.59;33.92
19510;BME280;9896;42.486;26.506;2022-08-19T11:34:36;99263.22;;;34.01;32.87
19510;BME280;9896;42.486;26.506;2022-08-19T11:37:02;99268.91;;;34.75;31.71
19510;BME280;9896;42.486;26.506;2022-08-19T11:39:30;99262.06;;;34.32;32.57
19510;BME280;9896;42.486;26.506;2022-08-19T11:42:00;99258.47;;;35.09;31.24
19510;BME280;9896;42.486;26.506;2022-08-19T11:44:27;99249.16;;;34.20;32.75
19510;BME280;9896;42.486;26.506;2022-08-19T11:46:55;99248.63;;;33.78;33.67
19510;BME280;9896;42.486;26.506;2022-08-19T11:49:21;99247.09;;;34.47;31.62
19510;BME280;9896;42.486;26.506;2022-08-19T11:51:48;99253.34;;;34.37;33.15
19510;BME280;9896;42.486;26.506;2022-08-19T11:54:16;99244.19;;;34.36;32.17
19510;BME280;9896;42.486;26.506;2022-08-19T11:56:43;99248.78;;;34.55;32.25
19510;BME280;9896;42.486;26.506;2022-08-19T11:59:09;99248.09;;;34.65;31.67
19510;BME280;9896;42.486;26.506;2022-08-19T12:01:36;99248.06;;;35.06;31.34
19510;BME280;9896;42.486;26.506;2022-08-19T12:04:02;99240.44;;;34.55;31.35
19510;BME280;9896;42.486;26.506;2022-08-19T12:06:31;99244.63;;;34.75;31.98
19510;BME280;9896;42.486;26.506;2022-08-19T12:09:02;99245.31;;;35.57;30.66
19510;BME280;9896;42.486;26.506;2022-08-19T12:11:28;99241.03;;;34.75;32.04
19510;BME280;9896;42.486;26.506;2022-08-19T12:13:55;99236.38;;;34.49;32.44
19510;BME280;9896;42.486;26.506;2022-08-19T12:16:23;99226.81;;;34.83;32.12
19510;BME280;9896;42.486;26.506;2022-08-19T12:18:49;99226.34;;;34.78;32.23
19510;BME280;9896;42.486;26.506;2022-08-19T12:21:26;99229.97;;;34.82;32.11
19510;BME280;9896;42.486;26.506;2022-08-19T12:23:54;99232.06;;;34.92;32.03
19510;BME280;9896;42.486;26.506;2022-08-19T12:26:21;99232.66;;;34.34;32.32
19510;BME280;9896;42.486;26.506;2022-08-19T12:28:47;99223.47;;;34.30;32.58
19510;BME280;9896;42.486;26.506;2022-08-19T12:31:16;99228.75;;;34.79;32.00
19510;BME280;9896;42.486;26.506;2022-08-19T12:33:43;99222.53;;;34.96;31.19
19510;BME280;9896;42.486;26.506;2022-08-19T12:36:10;99225.56;;;35.21;31.35
19510;BME280;9896;42.486;26.506;2022-08-19T12:38:37;99228.66;;;35.13;31.14
19510;BME280;9896;42.486;26.506;2022-08-19T12:41:04;99215.56;;;35.17;30.92
19510;BME280;9896;42.486;26.506;2022-08-19T12:43:32;99227.97;;;35.30;30.21
19510;BME280;9896;42.486;26.506;2022-08-19T12:45:57;99211.91;;;34.65;31.19
19510;BME280;9896;42.486;26.506;2022-08-19T12:48:23;99216.72;;;34.68;31.76
19510;BME280;9896;42.486;26.506;2022-08-19T12:50:48;99219.41;;;35.56;30.41
19510;BME280;9896;42.486;26.506;2022-08-19T12:53:14;99212.72;;;35.13;30.68
19510;BME280;9896;42.486;26.506;2022-08-19T12:55:41;99203.69;;;34.79;30.82
19510;BME280;9896;42.486;26.506;2022-08-19T12:58:07;99211.41;;;34.56;31.38
19510;BME280;9896;42.486;26.506;2022-08-19T13:00:33;99214.03;;;34.79;30.93
19510;BME280;9896;42.486;26.506;2022-08-19T13:02:59;99213.56;;;34.36;31.82
19510;BME280;9896;42.486;26.506;2022-08-19T13:05:28;99221.09;;;35.13;30.00
19510;BME280;9896;42.486;26.506;2022-08-19T13:07:56;99219.13;;;34.73;30.78
19510;BME280;9896;42.486;26.506;2022-08-19T13:10:25;99214.34;;;35.14;30.05
19510;BME280;9896;42.486;26.506;2022-08-19T13:12:53;99203.63;;;35.20;30.11
19510;BME280;9896;42.486;26.506;2022-08-19T13:15:21;99205.75;;;35.37;29.49